Data for 07/17/2005

Time Sea-Level Adjusted Pressure Absolute Pressure Temperature Relative Humidity Dew Point   
(mb) (inHg) (mb) (inHg) (C) (F) (%) (C) (F)
00:05 1020 30.12 849 25.07 13.7 56.6 74 9.1 48.5
00:10 1020 30.12 849 25.07 13.7 56.6 71 8.6 47.4
00:15 1020 30.12 849 25.07 13.7 56.7 71 8.6 47.4
00:20 1020 30.12 849 25.07 13.7 56.7 72 8.9 48
00:25 1020 30.12 849 25.07 13.6 56.4 72 8.7 47.7
00:30 1020 30.12 849 25.07 13.5 56.4 67 7.6 45.6
00:35 1020 30.12 849 25.07 13.5 56.3 69 8 46.5
00:40 1020 30.12 849 25.07 13.5 56.3 66 7.4 45.4
00:45 1020 30.12 850 25.1 13.4 56.2 67 7.4 45.3
00:50 1020 30.12 850 25.1 13.4 56.1 68 7.5 45.6
00:55 1020 30.12 850 25.1 13.4 56.1 69 8 46.3
01:00 1021 30.15 850 25.1 13.2 55.8 70 7.9 46.3
01:05 1021 30.15 850 25.1 13.1 55.5 67 7.1 44.7
01:10 1021 30.15 850 25.1 13 55.5 64 6.4 43.4
01:15 1021 30.15 850 25.1 13.1 55.5 65 6.6 43.9
01:20 1020 30.12 850 25.1 13 55.4 63 6.2 43.1
01:25 1021 30.15 850 25.1 12.8 55 64 6.2 43.1
01:30 1021 30.15 850 25.1 12.5 54.6 63 5.7 42.3
01:35 1021 30.15 850 25.1 12.4 54.3 64 5.8 42.5
01:40 1021 30.15 850 25.1 12.3 54.1 63 5.5 41.9
01:45 1021 30.15 850 25.1 12.2 53.9 63 5.4 41.7
01:50 1021 30.15 850 25.1 12.1 53.7 63 5.2 41.4
01:55 1021 30.15 850 25.1 12 53.7 64 5.4 41.7
02:00 1021 30.15 850 25.1 11.9 53.4 64 5.3 41.6
02:05 1021 30.15 850 25.1 11.9 53.3 64 5.3 41.6
02:10 1021 30.15 850 25.1 11.7 53.1 65 5.5 41.8
02:15 1021 30.15 850 25.1 11.6 52.8 66 5.5 41.8
02:20 1021 30.15 850 25.1 11.5 52.7 67 5.5 42
02:25 1021 30.15 850 25.1 11.4 52.5 67 5.5 41.9
02:30 1021 30.15 850 25.1 11.3 52.3 68 5.5 41.9
02:35 1021 30.15 850 25.1 11.2 52.1 68 5.5 41.8
02:40 1021 30.15 850 25.1 10.9 51.7 70 5.8 42.4
02:45 1021 30.15 850 25.1 10.8 51.4 70 5.5 41.8
02:50 1021 30.15 850 25.1 10.6 51.1 69 5.3 41.6
02:55 1021 30.15 851 25.13 10.6 51 69 5.1 41.2
03:00 1021 30.15 851 25.13 10.8 51.4 67 5 41
03:05 1021 30.15 851 25.13 11 51.7 66 4.9 40.7
03:10 1021 30.15 850 25.1 10.8 51.4 67 5 41
03:15 1021 30.15 850 25.1 10.6 51 69 5.1 41.2
03:20 1021 30.15 851 25.13 10.5 50.8 69 5 41
03:25 1021 30.15 851 25.13 10.4 50.7 69 5.1 41.2
03:30 1021 30.15 850 25.1 10.2 50.4 70 5 41
03:35 1021 30.15 850 25.1 9.9 49.9 70 4.8 40.7
03:40 1021 30.15 851 25.13 9.9 49.7 70 4.6 40.4
03:45 1021 30.15 851 25.13 10.1 50.3 68 4.5 40.1
03:50 1021 30.15 851 25.13 10.1 50.2 70 4.8 40.7
03:55 1021 30.15 851 25.13 10.1 50.2 67 4.3 39.8
04:00 1021 30.15 851 25.13 10.4 50.7 67 4.5 40.1
04:05 1021 30.15 851 25.13 10.3 50.5 68 4.7 40.4
04:10 1021 30.15 851 25.13 9.9 49.9 72 5.2 41.4
04:15 1022 30.18 851 25.13 9.3 48.8 76 5.3 41.5
04:20 1021 30.15 851 25.13 9.1 48.4 77 5.2 41.4
04:25 1021 30.15 851 25.13 9.2 48.5 79 5.7 42.2
04:30 1022 30.18 851 25.13 8.7 47.7 81 5.6 42.1
04:35 1022 30.18 851 25.13 8.7 47.6 79 5.3 41.5
04:40 1022 30.18 851 25.13 9 48.1 78 5.3 41.6
04:45 1022 30.18 851 25.13 8.9 48 78 5.4 41.6
04:50 1022 30.18 851 25.13 8.7 47.6 79 5.3 41.5
04:55 1022 30.18 851 25.13 8.8 47.8 78 5.1 41.2
05:00 1022 30.18 851 25.13 8.8 47.9 77 5 41.1
05:05 1022 30.18 851 25.13 8.7 47.6 79 5.2 41.4
05:10 1022 30.18 851 25.13 8.5 47.2 79 5.1 41.1
05:15 1022 30.18 851 25.13 8.5 47.2 79 5.1 41.2
05:20 1022 30.18 851 25.13 8.5 47.2 80 5.2 41.4
05:25 1022 30.18 851 25.13 8.4 47.1 79 5 41
05:30 1022 30.18 851 25.13 8.6 47.4 78 4.9 40.8
05:35 1022 30.18 851 25.13 8.4 47 78 4.7 40.5
05:40 1022 30.18 851 25.13 8.3 46.9 78 4.7 40.5
05:45 1022 30.18 851 25.13 8.3 47 79 4.8 40.7
05:50 1022 30.18 851 25.13 8.1 46.6 80 4.9 40.8
05:55 1022 30.18 851 25.13 8.1 46.6 80 4.8 40.7
06:00 1022 30.18 851 25.13 8.2 46.8 79 4.8 40.7
06:05 1022 30.18 851 25.13 8 46.4 81 4.9 40.8
06:10 1022 30.18 851 25.13 7.8 46.1 81 4.7 40.5
06:15 1022 30.18 851 25.13 8 46.3 80 4.7 40.5
06:20 1022 30.18 851 25.13 8.4 47.1 77 4.7 40.4
06:25 1022 30.18 852 25.16 8.5 47.4 79 5.1 41.1
06:30 1022 30.18 852 25.16 7.9 46.2 80 4.7 40.5
06:35 1022 30.18 852 25.16 8 46.3 80 4.7 40.4
06:40 1022 30.18 852 25.16 8.3 46.9 79 4.8 40.6
06:45 1022 30.18 852 25.16 8.7 47.7 77 5 40.9
06:50 1023 30.21 852 25.16 8.9 48 77 5.1 41.1
06:55 1023 30.21 852 25.16 8.8 47.8 78 5.2 41.3
07:00 1023 30.21 852 25.16 9 48.2 77 5.2 41.3
07:05 1023 30.21 852 25.16 9 48.1 77 5.1 41.2
07:10 1023 30.21 852 25.16 9.2 48.5 76 5.2 41.4
07:15 1023 30.21 852 25.16 9.5 49.1 75 5.3 41.6
07:20 1023 30.21 852 25.16 9.7 49.4 75 5.5 42
07:25 1023 30.21 852 25.16 10 50 73 5.4 41.7
07:30 1023 30.21 852 25.16 10.5 51 70 5.3 41.5
07:35 1023 30.21 852 25.16 10.9 51.7 69 5.6 42
07:40 1023 30.21 852 25.16 11.5 52.6 69 6 42.8
07:45 1023 30.21 852 25.16 11.9 53.3 67 5.9 42.7
07:50 1023 30.21 852 25.16 12.2 53.9 67 6.3 43.3
07:55 1023 30.21 852 25.16 12.3 54.2 68 6.6 43.8
08:00 1023 30.21 852 25.16 13 55.3 65 6.5 43.7
08:05 1023 30.21 852 25.16 13.2 55.7 61 6 42.7
08:10 1023 30.21 852 25.16 13.4 56.2 62 6.3 43.3
08:15 1023 30.21 853 25.19 13.2 55.8 61 5.9 42.5
08:20 1023 30.21 852 25.16 13.5 56.4 60 6 42.8
08:25 1023 30.21 852 25.16 13.6 56.6 58 5.7 42.2
08:30 1023 30.21 852 25.16 14.2 57.5 56 5.7 42.3
08:35 1023 30.21 853 25.19 14.2 57.6 57 5.9 42.6
08:40 1023 30.21 853 25.19 14 57.2 55 5.2 41.4
08:45 1023 30.21 852 25.16 14.3 57.8 55 5.5 41.9
08:50 1023 30.21 852 25.16 14.7 58.4 54 5.6 42.1
08:55 1023 30.21 852 25.16 15 58.9 52 5.2 41.4
09:00 1023 30.21 852 25.16 15 59 53 5.5 41.8
09:05 1023 30.21 852 25.16 15.4 59.8 52 5.7 42.3
09:10 1023 30.21 852 25.16 15.3 59.6 52 5.7 42.2
09:15 1023 30.21 852 25.16 15.9 60.6 48 4.9 40.7
09:20 1023 30.21 852 25.16 16 60.7 50 5.6 42
09:25 1023 30.21 852 25.16 16.4 61.6 48 5.4 41.8
09:30 1023 30.21 853 25.19 16.4 61.5 49 5.6 42.1
09:35 1023 30.21 852 25.16 16.5 61.7 48 5.5 41.9
09:40 1023 30.21 853 25.19 16.8 62.2 48 5.9 42.6
09:45 1023 30.21 853 25.19 16.2 61.1 51 6.2 43.1
09:50 1023 30.21 853 25.19 15.3 59.6 51 5.3 41.6
09:55 1024 30.24 853 25.19 15.4 59.8 50 5.2 41.3
10:00 1023 30.21 853 25.19 15.5 59.8 51 5.5 41.9
10:05 1023 30.21 853 25.19 15.9 60.7 48 4.9 40.9
10:10 1023 30.21 853 25.19 16.9 62.5 45 5 41
10:15 1024 30.24 853 25.19 16.8 62.2 48 5.7 42.2
10:20 1024 30.24 853 25.19 16.7 62.1 47 5.3 41.6
10:25 1024 30.24 853 25.19 16.9 62.4 45 5.1 41.1
10:30 1024 30.24 853 25.19 16.8 62.2 44 4.7 40.4
10:35 1024 30.24 853 25.19 16.7 62 47 5.3 41.6
10:40 1024 30.24 853 25.19 17.6 63.7 43 5.1 41.2
10:45 1024 30.24 853 25.19 17.9 64.2 44 5.7 42.2
10:50 1024 30.24 853 25.19 17.9 64.2 45 5.8 42.5
10:55 1024 30.24 853 25.19 17.3 63.2 46 5.6 42.1
11:00 1024 30.24 853 25.19 17.4 63.3 44 5.3 41.5
11:05 1024 30.24 853 25.19 17.6 63.6 45 5.8 42.4
11:10 1024 30.24 853 25.19 17.4 63.2 46 5.8 42.5
11:15 1024 30.24 853 25.19 17 62.6 46 5.5 42
11:20 1024 30.24 853 25.19 17.2 62.9 43 4.5 40
11:25 1024 30.24 853 25.19 17.7 63.8 44 5.5 41.9
11:30 1024 30.24 853 25.19 18.1 64.7 43 5.5 41.9
11:35 1024 30.24 853 25.19 18.6 65.5 39 4.7 40.5
11:40 1024 30.24 853 25.19 18.6 65.4 40 5 40.9
11:45 1024 30.24 853 25.19 18.3 65 41 5.2 41.3
11:50 1024 30.24 853 25.19 18.5 65.3 42 5.6 42
11:55 1024 30.24 853 25.19 17.9 64.2 43 5.3 41.5
12:00 1024 30.24 853 25.19 17.9 64.3 43 5.3 41.5
12:05 1024 30.24 853 25.19 18.3 65 42 5.4 41.7
12:10 1024 30.24 853 25.19 17.6 63.6 43 5 41
12:15 1024 30.24 853 25.19 18.5 65.2 40 4.8 40.7
12:20 1024 30.24 853 25.19 19.2 66.6 38 4.9 40.7
12:25 1024 30.24 853 25.19 19.4 67 36 4.3 39.7
12:30 1024 30.24 853 25.19 18.9 66 40 5.2 41.3
12:35 1024 30.24 853 25.19 19 66.2 37 4.1 39.3
12:40 1024 30.24 853 25.19 19.3 66.8 37 4.3 39.7
12:45 1024 30.24 853 25.19 19.5 67.1 38 5 41
12:50 1024 30.24 853 25.19 19.7 67.4 36 4.5 40.1
12:55 1024 30.24 853 25.19 19.9 67.9 36 4.6 40.4
13:00 1024 30.24 853 25.19 20.4 68.7 34 4.2 39.5
13:05 1024 30.24 853 25.19 20.3 68.6 35 4.3 39.8
13:10 1024 30.24 853 25.19 20 68 36 4.5 40.2
13:15 1024 30.24 853 25.19 20.1 68.1 36 4.6 40.3
13:20 1024 30.24 853 25.19 20.1 68.1 34 3.9 39.1
13:25 1024 30.24 853 25.19 20.1 68.1 34 3.7 38.6
13:30 1023 30.21 853 25.19 20.3 68.6 33 3.8 38.8
13:35 1023 30.21 853 25.19 20.5 68.9 34 4.4 39.9
13:40 1023 30.21 853 25.19 20.7 69.2 34 4.5 40.1
13:45 1023 30.21 853 25.19 20.6 69 35 4.9 40.8
13:50 1023 30.21 853 25.19 20.1 68.2 35 4.5 40.1
13:55 1023 30.21 853 25.19 20.6 69 34 4.2 39.5
14:00 1024 30.24 853 25.19 20.5 68.9 34 4.1 39.4
14:05 1023 30.21 853 25.19 20.8 69.4 32 3.7 38.7
14:10 1023 30.21 853 25.19 20.8 69.4 33 4.1 39.4
14:15 1023 30.21 853 25.19 20.4 68.7 33 3.6 38.5
14:20 1023 30.21 853 25.19 20.7 69.2 34 4.4 39.8
14:25 1023 30.21 853 25.19 20.7 69.2 33 3.8 38.8
14:30 1023 30.21 853 25.19 20.8 69.5 33 3.9 39.1
14:35 1023 30.21 853 25.19 21.1 70 32 3.9 39
14:40 1023 30.21 853 25.19 21.1 70 31 3.7 38.7
14:45 1023 30.21 853 25.19 21 69.8 32 3.7 38.7
14:50 1023 30.21 853 25.19 21.2 70.1 32 4.2 39.6
14:55 1023 30.21 853 25.19 21.8 71.2 32 4.4 40
15:00 1023 30.21 853 25.19 22.3 72.2 29 3.7 38.7
15:05 1023 30.21 853 25.19 22.3 72.1 30 4.2 39.5
15:10 1023 30.21 853 25.19 22.3 72.2 29 3.7 38.7
15:15 1023 30.21 853 25.19 20.9 69.6 32 3.7 38.6
15:20 1023 30.21 853 25.19 21.3 70.4 31 3.7 38.7
15:25 1023 30.21 853 25.19 21.3 70.3 32 4.1 39.4
15:30 1023 30.21 853 25.19 22.3 72.1 29 3.7 38.7
15:35 1023 30.21 853 25.19 22.3 72.1 29 3.6 38.4
15:40 1023 30.21 853 25.19 21.9 71.4 30 3.5 38.4
15:45 1023 30.21 853 25.19 22.2 71.9 27 2.7 36.9
15:50 1023 30.21 852 25.16 22.6 72.7 29 3.7 38.7
15:55 1023 30.21 852 25.16 22.4 72.3 27 2.9 37.3
16:00 1023 30.21 853 25.19 22.1 71.8 28 2.9 37.3
16:05 1023 30.21 853 25.19 22.5 72.5 27 3 37.3
16:10 1023 30.21 852 25.16 23 73.3 27 3.4 38.2
16:15 1023 30.21 852 25.16 22.7 72.9 28 3.4 38.2
16:20 1023 30.21 852 25.16 22.7 72.9 27 3.2 37.8
16:25 1023 30.21 852 25.16 23.1 73.6 28 3.7 38.6
16:30 1023 30.21 852 25.16 22.7 72.8 27 3.1 37.6
16:35 1023 30.21 852 25.16 23 73.5 26 2.9 37.3
16:40 1023 30.21 852 25.16 22.8 73 28 3.3 38
16:45 1023 30.21 852 25.16 22.9 73.2 28 3.6 38.5
16:50 1023 30.21 852 25.16 22.4 72.4 28 3.3 38
16:55 1023 30.21 852 25.16 22.7 72.9 28 3.3 37.9
17:00 1023 30.21 852 25.16 22.7 72.9 27 3.1 37.6
17:05 1023 30.21 852 25.16 22.8 73.1 27 3.3 37.9
17:10 1023 30.21 852 25.16 23.1 73.6 27 3.2 37.8
17:15 1023 30.21 852 25.16 23 73.3 27 3.4 38.1
17:20 1023 30.21 852 25.16 22.6 72.6 31 4.9 40.8
17:25 1023 30.21 852 25.16 22.9 73.3 27 3.3 38
17:30 1023 30.21 852 25.16 23.3 74 27 3.5 38.3
17:35 1023 30.21 852 25.16 23 73.3 28 3.5 38.2
17:40 1023 30.21 852 25.16 22.7 72.9 27 3.2 37.8
17:45 1023 30.21 852 25.16 23 73.3 26 2.8 37
17:50 1023 30.21 852 25.16 23 73.5 26 2.9 37.2
17:55 1023 30.21 852 25.16 23.2 73.8 26 2.8 37.1
18:00 1023 30.21 852 25.16 22.9 73.1 27 3.1 37.7
18:05 1023 30.21 852 25.16 22.6 72.7 28 3.2 37.7
18:10 1023 30.21 852 25.16 22.4 72.4 28 3.4 38.1
18:15 1023 30.21 852 25.16 22.8 73.1 27 3.1 37.6
18:20 1023 30.21 852 25.16 23.1 73.6 27 3.4 38.1
18:25 1023 30.21 852 25.16 21.9 71.4 29 3.2 37.8
18:30 1023 30.21 852 25.16 22.2 71.9 27 2.6 36.7
18:35 1023 30.21 852 25.16 22.1 71.8 29 3.3 37.9
18:40 1022 30.18 852 25.16 21.7 71.1 30 3.4 38.1
18:45 1022 30.18 852 25.16 22.1 71.7 28 2.8 37.1
18:50 1022 30.18 852 25.16 21.8 71.2 29 3.2 37.7
18:55 1022 30.18 852 25.16 21.3 70.4 29 2.8 37
19:00 1022 30.18 852 25.16 21.7 71 29 2.9 37.3
19:05 1022 30.18 851 25.13 21.8 71.2 30 3.5 38.4
19:10 1022 30.18 851 25.13 22.1 71.8 28 3.1 37.5
19:15 1022 30.18 851 25.13 22.3 72.1 27 2.8 37
19:20 1022 30.18 851 25.13 22.3 72.1 28 3.2 37.7
19:25 1022 30.18 851 25.13 21.3 70.3 31 3.4 38.2
19:30 1022 30.18 851 25.13 20.8 69.4 31 3.1 37.7
19:35 1022 30.18 851 25.13 20.6 69.1 31 3.1 37.7
19:40 1022 30.18 851 25.13 20.9 69.6 31 3.5 38.2
19:45 1022 30.18 851 25.13 21 69.8 30 3 37.5
19:50 1022 30.18 851 25.13 20.8 69.4 31 3.1 37.6
19:55 1022 30.18 851 25.13 21 69.8 30 2.9 37.2
20:00 1022 30.18 851 25.13 21.6 70.8 29 3 37.4
20:05 1022 30.18 851 25.13 21.5 70.7 29 2.9 37.2
20:10 1022 30.18 851 25.13 21 69.7 31 3.2 37.7
20:15 1022 30.18 851 25.13 20.5 68.9 31 2.9 37.1
20:20 1022 30.18 851 25.13 20.3 68.5 32 3.1 37.5
20:25 1022 30.18 851 25.13 20.4 68.6 31 3 37.4
20:30 1022 30.18 851 25.13 20.4 68.6 31 3 37.4
20:35 1022 30.18 851 25.13 20.2 68.4 32 3.3 37.9
20:40 1022 30.18 851 25.13 20 68 33 3.3 37.9
20:45 1022 30.18 851 25.13 19.8 67.6 33 3.2 37.7
20:50 1022 30.18 851 25.13 19.6 67.3 33 3 37.3
20:55 1022 30.18 851 25.13 19.7 67.5 32 2.9 37.2
21:00 1022 30.18 851 25.13 19.8 67.7 33 3.1 37.6
21:05 1022 30.18 851 25.13 19.8 67.7 33 3.3 38
21:10 1022 30.18 851 25.13 19.7 67.5 35 4 39.2
21:15 1022 30.18 851 25.13 19.6 67.4 33 3.1 37.6
21:20 1022 30.18 851 25.13 19.6 67.3 38 5.1 41.2
21:25 1022 30.18 851 25.13 18.7 65.7 44 6.2 43.2
21:30 1022 30.18 851 25.13 18.4 65.1 45 6.3 43.3
21:35 1022 30.18 851 25.13 17.9 64.2 53 8.4 47.1
21:40 1022 30.18 851 25.13 17 62.5 58 8.7 47.6
21:45 1022 30.18 851 25.13 16.4 61.4 58 8.1 46.5
21:50 1022 30.18 851 25.13 15.7 60.2 60 8 46.3
21:55 1022 30.18 851 25.13 15.3 59.5 61 7.7 45.9
22:00 1022 30.18 851 25.13 14.9 58.9 56 6.3 43.3
22:05 1022 30.18 851 25.13 15.1 59.3 54 6 42.9
22:10 1022 30.18 851 25.13 15.1 59.1 55 6.3 43.3
22:15 1022 30.18 851 25.13 14.8 58.7 56 6.2 43.1
22:20 1022 30.18 851 25.13 14.6 58.3 57 6.2 43.2
22:25 1022 30.18 851 25.13 14.5 58 58 6.4 43.4
22:30 1022 30.18 851 25.13 14.2 57.6 59 6.5 43.7
22:35 1022 30.18 851 25.13 14.2 57.6 59 6.4 43.5
22:40 1022 30.18 851 25.13 14 57.2 59 6.3 43.3
22:45 1022 30.18 851 25.13 14 57.2 59 6.2 43.1
22:50 1022 30.18 851 25.13 14 57.1 59 6 42.8
22:55 1022 30.18 851 25.13 14.1 57.3 58 6.1 43
23:00 1022 30.18 851 25.13 14.1 57.4 58 6.1 42.9
23:05 1022 30.18 851 25.13 14.3 57.7 56 5.8 42.4
23:10 1022 30.18 851 25.13 14.4 58 56 5.9 42.6
23:15 1022 30.18 851 25.13 14.3 57.7 57 6 42.8
23:20 1022 30.18 851 25.13 14.1 57.4 59 6.3 43.3
23:25 1022 30.18 851 25.13 13.5 56.4 61 6.1 43.1
23:30 1022 30.18 851 25.13 13.3 55.9 61 6.1 42.9
23:35 1022 30.18 851 25.13 12.9 55.3 62 6 42.7
23:40 1022 30.18 851 25.13 12.8 55.1 63 6.1 42.9
23:45 1022 30.18 851 25.13 12.9 55.2 62 5.9 42.6
23:50 1022 30.18 851 25.13 13.3 55.9 60 5.7 42.3
23:55 1022 30.18 851 25.13 13.5 56.4 59 5.8 42.4
24:00 1022 30.18 851 25.13 13.7 56.6 59 5.9 42.5